sensor_id;sensor_type;location;lat;lon;timestamp;pressure;altitude;pressure_sealevel;temperature;humidity
36664;BME280;53333;51.976;20.144;2023-04-06T00:01:03;100820.03;;;0.33;52.64
36664;BME280;53333;51.976;20.144;2023-04-06T00:03:36;100815.69;;;0.30;52.78
36664;BME280;53333;51.976;20.144;2023-04-06T00:06:09;100817.41;;;0.28;52.83
36664;BME280;53333;51.976;20.144;2023-04-06T00:08:43;100820.00;;;0.25;52.87
36664;BME280;53333;51.976;20.144;2023-04-06T00:11:17;100821.75;;;0.23;53.02
36664;BME280;53333;51.976;20.144;2023-04-06T00:13:52;100820.88;;;0.21;52.97
36664;BME280;53333;51.976;20.144;2023-04-06T00:16:25;100823.50;;;0.20;53.20
36664;BME280;53333;51.976;20.144;2023-04-06T00:19:01;100825.22;;;0.19;53.25
36664;BME280;53333;51.976;20.144;2023-04-06T00:21:34;100825.22;;;0.19;53.46
36664;BME280;53333;51.976;20.144;2023-04-06T00:24:07;100820.91;;;0.23;53.22
36664;BME280;53333;51.976;20.144;2023-04-06T00:26:41;100820.03;;;0.27;53.54
36664;BME280;53333;51.976;20.144;2023-04-06T00:29:14;100824.44;;;0.34;53.29
36664;BME280;53333;51.976;20.144;2023-04-06T00:31:48;100814.81;;;0.41;53.35
36664;BME280;53333;51.976;20.144;2023-04-06T00:34:21;100812.22;;;0.45;53.30
36664;BME280;53333;51.976;20.144;2023-04-06T00:36:54;100807.84;;;0.49;53.33
36664;BME280;53333;51.976;20.144;2023-04-06T00:39:27;100806.97;;;0.53;53.38
36664;BME280;53333;51.976;20.144;2023-04-06T00:42:09;100803.47;;;0.60;53.42
36664;BME280;53333;51.976;20.144;2023-04-06T00:44:43;100797.34;;;0.63;53.17
36664;BME280;53333;51.976;20.144;2023-04-06T00:47:16;100794.75;;;0.67;53.14
36664;BME280;53333;51.976;20.144;2023-04-06T00:49:49;100785.94;;;0.68;53.10
36664;BME280;53333;51.976;20.144;2023-04-06T00:52:25;100784.22;;;0.64;53.34
36664;BME280;53333;51.976;20.144;2023-04-06T00:54:58;100783.31;;;0.64;53.54
36664;BME280;53333;51.976;20.144;2023-04-06T00:57:33;100782.44;;;0.65;53.61
36664;BME280;53333;51.976;20.144;2023-04-06T01:00:07;100784.22;;;0.67;53.45
36664;BME280;53333;51.976;20.144;2023-04-06T01:02:41;100782.47;;;0.72;53.56
36664;BME280;53333;51.976;20.144;2023-04-06T01:05:15;100781.59;;;0.77;53.68
36664;BME280;53333;51.976;20.144;2023-04-06T01:07:58;100780.72;;;0.79;53.55
36664;BME280;53333;51.976;20.144;2023-04-06T01:10:32;100785.13;;;0.80;53.74
36664;BME280;53333;51.976;20.144;2023-04-06T01:13:18;100789.47;;;0.84;53.87
36664;BME280;53333;51.976;20.144;2023-04-06T01:15:59;100789.47;;;0.86;53.85
36664;BME280;53333;51.976;20.144;2023-04-06T01:18:46;100780.72;;;0.87;53.79
36664;BME280;53333;51.976;20.144;2023-04-06T01:21:33;100789.50;;;0.87;53.85
36664;BME280;53333;51.976;20.144;2023-04-06T01:24:22;100789.50;;;0.89;54.15
36664;BME280;53333;51.976;20.144;2023-04-06T01:27:17;100791.25;;;0.92;54.06
36664;BME280;53333;51.976;20.144;2023-04-06T01:29:55;100782.47;;;0.94;54.21
36664;BME280;53333;51.976;20.144;2023-04-06T01:32:47;100783.38;;;0.95;54.12
36664;BME280;53333;51.976;20.144;2023-04-06T01:35:26;100778.97;;;0.95;54.22
36664;BME280;53333;51.976;20.144;2023-04-06T01:38:14;100778.13;;;0.99;54.24
36664;BME280;53333;51.976;20.144;2023-04-06T01:40:50;100771.94;;;0.99;54.36
36664;BME280;53333;51.976;20.144;2023-04-06T01:43:25;100771.09;;;1.03;54.18
36664;BME280;53333;51.976;20.144;2023-04-06T01:46:17;100764.97;;;1.02;54.20
36664;BME280;53333;51.976;20.144;2023-04-06T01:48:50;100771.97;;;1.05;54.27
36664;BME280;53333;51.976;20.144;2023-04-06T01:51:35;100771.97;;;1.08;54.21
36664;BME280;53333;51.976;20.144;2023-04-06T01:54:11;100764.06;;;1.11;54.33
36664;BME280;53333;51.976;20.144;2023-04-06T01:57:03;100760.56;;;1.14;54.33
36664;BME280;53333;51.976;20.144;2023-04-06T01:59:47;100764.94;;;1.16;54.03
36664;BME280;53333;51.976;20.144;2023-04-06T02:02:28;100766.69;;;1.17;54.11
36664;BME280;53333;51.976;20.144;2023-04-06T02:05:07;100764.94;;;1.18;54.09
36664;BME280;53333;51.976;20.144;2023-04-06T02:07:41;100756.16;;;1.19;54.17
36664;BME280;53333;51.976;20.144;2023-04-06T02:10:17;100746.50;;;1.21;54.15
36664;BME280;53333;51.976;20.144;2023-04-06T02:12:52;100746.50;;;1.21;54.32
36664;BME280;53333;51.976;20.144;2023-04-06T02:15:29;100746.50;;;1.21;54.17
36664;BME280;53333;51.976;20.144;2023-04-06T02:18:03;100753.53;;;1.23;54.06
36664;BME280;53333;51.976;20.144;2023-04-06T02:20:36;100743.88;;;1.25;54.15
36664;BME280;53333;51.976;20.144;2023-04-06T02:23:09;100743.88;;;1.30;54.21
36664;BME280;53333;51.976;20.144;2023-04-06T02:25:42;100741.25;;;1.32;54.04
36664;BME280;53333;51.976;20.144;2023-04-06T02:28:18;100738.59;;;1.33;54.14
36664;BME280;53333;51.976;20.144;2023-04-06T02:30:51;100740.38;;;1.34;54.09
36664;BME280;53333;51.976;20.144;2023-04-06T02:33:27;100736.84;;;1.35;54.28
36664;BME280;53333;51.976;20.144;2023-04-06T02:36:00;100738.59;;;1.35;54.25
36664;BME280;53333;51.976;20.144;2023-04-06T02:38:34;100738.59;;;1.36;54.24
36664;BME280;53333;51.976;20.144;2023-04-06T02:41:07;100735.09;;;1.36;54.36
36664;BME280;53333;51.976;20.144;2023-04-06T02:43:42;100735.97;;;1.38;54.47
36664;BME280;53333;51.976;20.144;2023-04-06T02:46:24;100733.34;;;1.39;54.38
36664;BME280;53333;51.976;20.144;2023-04-06T02:48:57;100735.06;;;1.40;54.58
36664;BME280;53333;51.976;20.144;2023-04-06T02:51:34;100735.97;;;1.44;54.64
36664;BME280;53333;51.976;20.144;2023-04-06T02:54:27;100742.97;;;1.45;54.35
36664;BME280;53333;51.976;20.144;2023-04-06T02:57:00;100738.59;;;1.44;54.33
36664;BME280;53333;51.976;20.144;2023-04-06T02:59:44;100737.69;;;1.45;54.74
36664;BME280;53333;51.976;20.144;2023-04-06T03:02:22;100736.81;;;1.46;54.72
36664;BME280;53333;51.976;20.144;2023-04-06T03:04:59;100737.69;;;1.47;54.70
36664;BME280;53333;51.976;20.144;2023-04-06T03:07:38;100737.69;;;1.47;54.75
36664;BME280;53333;51.976;20.144;2023-04-06T03:10:15;100742.97;;;1.45;54.84
36664;BME280;53333;51.976;20.144;2023-04-06T03:12:49;100745.59;;;1.47;54.75
36664;BME280;53333;51.976;20.144;2023-04-06T03:15:42;100738.59;;;1.47;54.82
36664;BME280;53333;51.976;20.144;2023-04-06T03:18:22;100739.44;;;1.48;54.80
36664;BME280;53333;51.976;20.144;2023-04-06T03:20:56;100742.94;;;1.50;55.15
36664;BME280;53333;51.976;20.144;2023-04-06T03:23:37;100741.22;;;1.50;54.70
36664;BME280;53333;51.976;20.144;2023-04-06T03:26:10;100743.84;;;1.52;54.79
36664;BME280;53333;51.976;20.144;2023-04-06T03:28:43;100749.97;;;1.52;54.67
36664;BME280;53333;51.976;20.144;2023-04-06T03:31:18;100749.13;;;1.52;54.81
36664;BME280;53333;51.976;20.144;2023-04-06T03:34:02;100745.59;;;1.53;54.86
36664;BME280;53333;51.976;20.144;2023-04-06T03:36:37;100744.72;;;1.54;54.91
36664;BME280;53333;51.976;20.144;2023-04-06T03:39:10;100744.72;;;1.54;54.86
36664;BME280;53333;51.976;20.144;2023-04-06T03:41:46;100747.34;;;1.55;54.98
36664;BME280;53333;51.976;20.144;2023-04-06T03:44:34;100741.16;;;1.58;54.80
36664;BME280;53333;51.976;20.144;2023-04-06T03:47:09;100745.56;;;1.62;54.82
36664;BME280;53333;51.976;20.144;2023-04-06T03:49:42;100749.06;;;1.64;54.73
36664;BME280;53333;51.976;20.144;2023-04-06T03:52:17;100738.53;;;1.66;54.90
36664;BME280;53333;51.976;20.144;2023-04-06T03:54:50;100742.91;;;1.67;54.73
36664;BME280;53333;51.976;20.144;2023-04-06T03:57:23;100742.91;;;1.68;54.83
36664;BME280;53333;51.976;20.144;2023-04-06T03:59:56;100739.41;;;1.68;55.01
36664;BME280;53333;51.976;20.144;2023-04-06T04:02:31;100747.31;;;1.69;55.14
36664;BME280;53333;51.976;20.144;2023-04-06T04:05:05;100741.16;;;1.70;55.00
36664;BME280;53333;51.976;20.144;2023-04-06T04:07:38;100739.38;;;1.71;55.00
36664;BME280;53333;51.976;20.144;2023-04-06T04:10:13;100750.81;;;1.71;54.85
36664;BME280;53333;51.976;20.144;2023-04-06T04:12:46;100751.69;;;1.72;54.91
36664;BME280;53333;51.976;20.144;2023-04-06T04:15:19;100751.66;;;1.73;54.87
36664;BME280;53333;51.976;20.144;2023-04-06T04:17:53;100747.25;;;1.75;54.89
36664;BME280;53333;51.976;20.144;2023-04-06T04:20:26;100742.91;;;1.76;54.90
36664;BME280;53333;51.976;20.144;2023-04-06T04:23:00;100743.75;;;1.78;54.81
36664;BME280;53333;51.976;20.144;2023-04-06T04:25:36;100742.00;;;1.78;54.76
36664;BME280;53333;51.976;20.144;2023-04-06T04:28:09;100743.75;;;1.79;55.03
36664;BME280;53333;51.976;20.144;2023-04-06T04:30:43;100732.34;;;1.80;54.75
36664;BME280;53333;51.976;20.144;2023-04-06T04:33:18;100731.41;;;1.94;54.24
36664;BME280;53333;51.976;20.144;2023-04-06T04:35:53;100733.19;;;1.86;54.42
36664;BME280;53333;51.976;20.144;2023-04-06T04:38:29;100732.28;;;1.87;54.49
36664;BME280;53333;51.976;20.144;2023-04-06T04:41:02;100735.81;;;1.90;54.80
36664;BME280;53333;51.976;20.144;2023-04-06T04:43:35;100730.53;;;1.93;54.63
36664;BME280;53333;51.976;20.144;2023-04-06T04:46:08;100728.75;;;1.97;54.52
36664;BME280;53333;51.976;20.144;2023-04-06T04:48:45;100729.63;;;1.99;54.45
36664;BME280;53333;51.976;20.144;2023-04-06T04:51:18;100737.50;;;2.00;54.36
36664;BME280;53333;51.976;20.144;2023-04-06T04:54:04;100737.50;;;2.02;54.56
36664;BME280;53333;51.976;20.144;2023-04-06T04:56:37;100736.63;;;2.03;54.51
36664;BME280;53333;51.976;20.144;2023-04-06T04:59:21;100733.09;;;2.04;54.24
36664;BME280;53333;51.976;20.144;2023-04-06T05:02:01;100734.84;;;2.08;54.33
36664;BME280;53333;51.976;20.144;2023-04-06T05:04:45;100728.72;;;2.09;54.26
36664;BME280;53333;51.976;20.144;2023-04-06T05:07:24;100730.44;;;2.13;54.25
36664;BME280;53333;51.976;20.144;2023-04-06T05:09:59;100732.19;;;2.14;54.19
36664;BME280;53333;51.976;20.144;2023-04-06T05:12:37;100737.44;;;2.19;54.08
36664;BME280;53333;51.976;20.144;2023-04-06T05:15:12;100733.03;;;2.23;53.90
36664;BME280;53333;51.976;20.144;2023-04-06T05:17:46;100731.22;;;2.28;54.06
36664;BME280;53333;51.976;20.144;2023-04-06T05:20:25;100727.69;;;2.32;54.12
36664;BME280;53333;51.976;20.144;2023-04-06T05:22:59;100730.31;;;2.38;53.90
36664;BME280;53333;51.976;20.144;2023-04-06T05:25:32;100731.13;;;2.46;53.88
36664;BME280;53333;51.976;20.144;2023-04-06T05:28:15;100725.81;;;2.52;53.75
36664;BME280;53333;51.976;20.144;2023-04-06T05:30:48;100718.72;;;2.61;53.72
36664;BME280;53333;51.976;20.144;2023-04-06T05:33:22;100713.41;;;2.68;53.42
36664;BME280;53333;51.976;20.144;2023-04-06T05:36:07;100714.22;;;2.75;53.62
36664;BME280;53333;51.976;20.144;2023-04-06T05:38:44;100715.88;;;2.84;53.44
36664;BME280;53333;51.976;20.144;2023-04-06T05:41:34;100711.44;;;2.94;53.14
36664;BME280;53333;51.976;20.144;2023-04-06T05:44:07;100706.94;;;3.03;53.13
36664;BME280;53333;51.976;20.144;2023-04-06T05:46:40;100705.97;;;3.12;52.91
36664;BME280;53333;51.976;20.144;2023-04-06T05:49:17;100711.19;;;3.18;52.82
36664;BME280;53333;51.976;20.144;2023-04-06T05:51:52;100716.44;;;3.24;52.86
36664;BME280;53333;51.976;20.144;2023-04-06T05:54:25;100711.94;;;3.31;52.60
36664;BME280;53333;51.976;20.144;2023-04-06T05:57:04;100711.88;;;3.40;52.81
36664;BME280;53333;51.976;20.144;2023-04-06T05:59:37;100713.50;;;3.51;52.58
36664;BME280;53333;51.976;20.144;2023-04-06T06:02:10;100707.28;;;3.58;52.41
36664;BME280;53333;51.976;20.144;2023-04-06T06:04:47;100715.09;;;3.67;52.30
36664;BME280;53333;51.976;20.144;2023-04-06T06:07:23;100705.28;;;3.77;52.28
36664;BME280;53333;51.976;20.144;2023-04-06T06:10:05;100699.91;;;3.86;51.99
36664;BME280;53333;51.976;20.144;2023-04-06T06:12:40;100705.97;;;3.94;52.00
36664;BME280;53333;51.976;20.144;2023-04-06T06:15:13;100702.31;;;4.03;51.72
36664;BME280;53333;51.976;20.144;2023-04-06T06:17:50;100697.88;;;4.04;51.58
36664;BME280;53333;51.976;20.144;2023-04-06T06:20:23;100696.16;;;4.03;51.61
36664;BME280;53333;51.976;20.144;2023-04-06T06:22:57;100694.38;;;4.03;51.50
36664;BME280;53333;51.976;20.144;2023-04-06T06:25:32;100702.31;;;4.03;51.44
36664;BME280;53333;51.976;20.144;2023-04-06T06:28:06;100695.25;;;4.04;51.56
36664;BME280;53333;51.976;20.144;2023-04-06T06:30:40;100697.81;;;4.08;51.38
36664;BME280;53333;51.976;20.144;2023-04-06T06:33:14;100703.09;;;4.10;51.50
36664;BME280;53333;51.976;20.144;2023-04-06T06:35:48;100702.16;;;4.14;51.30
36664;BME280;53333;51.976;20.144;2023-04-06T06:38:22;100695.88;;;4.21;51.10
36664;BME280;53333;51.976;20.144;2023-04-06T06:40:56;100697.53;;;4.31;50.84
36664;BME280;53333;51.976;20.144;2023-04-06T06:43:31;100696.47;;;4.42;50.75
36664;BME280;53333;51.976;20.144;2023-04-06T06:46:12;100697.09;;;4.59;50.85
36664;BME280;53333;51.976;20.144;2023-04-06T06:48:45;100686.06;;;4.87;50.43
36664;BME280;53333;51.976;20.144;2023-04-06T06:51:18;100685.50;;;5.19;50.07
36664;BME280;53333;51.976;20.144;2023-04-06T06:53:52;100683.09;;;5.54;49.78
36664;BME280;53333;51.976;20.144;2023-04-06T06:56:25;100672.78;;;5.82;49.05
36664;BME280;53333;51.976;20.144;2023-04-06T06:58:59;100678.47;;;6.07;48.47
36664;BME280;53333;51.976;20.144;2023-04-06T07:01:33;100678.03;;;6.27;48.27
36664;BME280;53333;51.976;20.144;2023-04-06T07:04:06;100671.56;;;6.39;47.97
36664;BME280;53333;51.976;20.144;2023-04-06T07:06:43;100673.97;;;6.50;47.33
36664;BME280;53333;51.976;20.144;2023-04-06T07:09:20;100673.72;;;6.61;47.06
36664;BME280;53333;51.976;20.144;2023-04-06T07:12:03;100659.22;;;6.74;46.93
36664;BME280;53333;51.976;20.144;2023-04-06T07:14:39;100665.13;;;6.85;46.48
36664;BME280;53333;51.976;20.144;2023-04-06T07:17:12;100660.25;;;7.03;46.07
36664;BME280;53333;51.976;20.144;2023-04-06T07:19:45;100661.59;;;7.19;45.66
36664;BME280;53333;51.976;20.144;2023-04-06T07:22:18;100655.88;;;7.35;45.56
36664;BME280;53333;51.976;20.144;2023-04-06T07:24:53;100653.75;;;7.48;45.24
36664;BME280;53333;51.976;20.144;2023-04-06T07:27:26;100656.22;;;7.54;44.54
36664;BME280;53333;51.976;20.144;2023-04-06T07:29:59;100665.09;;;7.53;44.18
36664;BME280;53333;51.976;20.144;2023-04-06T07:32:34;100664.50;;;7.43;43.93
36664;BME280;53333;51.976;20.144;2023-04-06T07:35:08;100655.66;;;7.42;44.27
36664;BME280;53333;51.976;20.144;2023-04-06T07:37:41;100655.47;;;7.50;44.09
36664;BME280;53333;51.976;20.144;2023-04-06T07:40:16;100660.22;;;7.69;44.04
36664;BME280;53333;51.976;20.144;2023-04-06T07:42:49;100662.22;;;7.92;43.34
36664;BME280;53333;51.976;20.144;2023-04-06T07:45:23;100660.78;;;8.10;42.91
36664;BME280;53333;51.976;20.144;2023-04-06T07:47:58;100655.88;;;8.26;42.80
36664;BME280;53333;51.976;20.144;2023-04-06T07:50:32;100652.72;;;8.41;42.39
36664;BME280;53333;51.976;20.144;2023-04-06T07:53:05;100663.03;;;8.52;42.23
36664;BME280;53333;51.976;20.144;2023-04-06T07:55:40;100647.53;;;8.66;41.59
36664;BME280;53333;51.976;20.144;2023-04-06T07:58:13;100640.38;;;8.67;41.16
36664;BME280;53333;51.976;20.144;2023-04-06T08:00:48;100649.22;;;8.39;40.87
36664;BME280;53333;51.976;20.144;2023-04-06T08:03:21;100659.75;;;8.15;41.44
36664;BME280;53333;51.976;20.144;2023-04-06T08:05:57;100662.94;;;7.97;41.46
36664;BME280;53333;51.976;20.144;2023-04-06T08:08:30;100651.59;;;7.60;41.51
36664;BME280;53333;51.976;20.144;2023-04-06T08:11:04;100654.19;;;7.31;42.10
36664;BME280;53333;51.976;20.144;2023-04-06T08:13:37;100648.03;;;7.30;41.80
36664;BME280;53333;51.976;20.144;2023-04-06T08:16:10;100637.00;;;7.44;41.49
36664;BME280;53333;51.976;20.144;2023-04-06T08:18:46;100638.53;;;7.53;41.21
36664;BME280;53333;51.976;20.144;2023-04-06T08:21:18;100626.09;;;7.55;40.97
36664;BME280;53333;51.976;20.144;2023-04-06T08:23:51;100630.97;;;7.69;40.81
36664;BME280;53333;51.976;20.144;2023-04-06T08:26:26;100629.00;;;7.75;40.92
36664;BME280;53333;51.976;20.144;2023-04-06T08:28:59;100630.72;;;7.78;40.56
36664;BME280;53333;51.976;20.144;2023-04-06T08:31:32;100629.91;;;7.76;40.84
36664;BME280;53333;51.976;20.144;2023-04-06T08:34:05;100627.47;;;7.68;40.41
36664;BME280;53333;51.976;20.144;2023-04-06T08:36:42;100636.69;;;7.56;40.75
36664;BME280;53333;51.976;20.144;2023-04-06T08:39:14;100626.84;;;7.58;40.53
36664;BME280;53333;51.976;20.144;2023-04-06T08:41:49;100627.03;;;7.52;40.70
36664;BME280;53333;51.976;20.144;2023-04-06T08:44:23;100625.31;;;7.50;40.75
36664;BME280;53333;51.976;20.144;2023-04-06T08:46:57;100625.66;;;7.69;40.60
36664;BME280;53333;51.976;20.144;2023-04-06T08:49:31;100622.06;;;8.01;40.22
36664;BME280;53333;51.976;20.144;2023-04-06T08:52:05;100623.41;;;8.14;40.40
36664;BME280;53333;51.976;20.144;2023-04-06T08:54:38;100624.22;;;8.16;40.04
36664;BME280;53333;51.976;20.144;2023-04-06T08:57:13;100618.56;;;8.27;40.51
36664;BME280;53333;51.976;20.144;2023-04-06T08:59:46;100613.53;;;8.46;40.32
36664;BME280;53333;51.976;20.144;2023-04-06T09:02:20;100608.78;;;8.56;40.24
36664;BME280;53333;51.976;20.144;2023-04-06T09:04:53;100607.63;;;8.65;40.07
36664;BME280;53333;51.976;20.144;2023-04-06T09:07:27;100612.25;;;8.85;40.04
36664;BME280;53333;51.976;20.144;2023-04-06T09:10:00;100613.50;;;9.25;39.87
36664;BME280;53333;51.976;20.144;2023-04-06T09:12:35;100607.94;;;9.56;39.24
36664;BME280;53333;51.976;20.144;2023-04-06T09:15:18;100601.69;;;9.79;38.68
36664;BME280;53333;51.976;20.144;2023-04-06T09:17:54;100609.59;;;9.82;38.65
36664;BME280;53333;51.976;20.144;2023-04-06T09:20:27;100606.19;;;9.79;38.81
36664;BME280;53333;51.976;20.144;2023-04-06T09:23:00;100606.59;;;9.68;39.17
36664;BME280;53333;51.976;20.144;2023-04-06T09:25:33;100605.41;;;9.28;39.14
36664;BME280;53333;51.976;20.144;2023-04-06T09:28:07;100598.72;;;8.91;39.51
36664;BME280;53333;51.976;20.144;2023-04-06T09:30:47;100608.78;;;8.56;39.94
36664;BME280;53333;51.976;20.144;2023-04-06T09:33:24;100601.50;;;8.34;40.24
36664;BME280;53333;51.976;20.144;2023-04-06T09:36:10;100609.03;;;8.20;40.59
36664;BME280;53333;51.976;20.144;2023-04-06T09:38:54;100595.94;;;8.14;40.76
36664;BME280;53333;51.976;20.144;2023-04-06T09:41:28;100603.38;;;8.03;40.76
36664;BME280;53333;51.976;20.144;2023-04-06T09:44:04;100601.81;;;7.95;40.90
36664;BME280;53333;51.976;20.144;2023-04-06T09:46:39;100593.16;;;7.89;41.11
36664;BME280;53333;51.976;20.144;2023-04-06T09:49:30;100590.63;;;7.84;41.13
36664;BME280;53333;51.976;20.144;2023-04-06T09:52:06;100592.53;;;7.80;41.26
36664;BME280;53333;51.976;20.144;2023-04-06T09:54:43;100589.03;;;7.78;41.16
36664;BME280;53333;51.976;20.144;2023-04-06T09:57:24;100585.47;;;7.79;41.37
36664;BME280;53333;51.976;20.144;2023-04-06T10:00:04;100581.09;;;7.77;41.31
36664;BME280;53333;51.976;20.144;2023-04-06T10:02:49;100591.00;;;7.72;41.60
36664;BME280;53333;51.976;20.144;2023-04-06T10:05:46;100578.88;;;7.63;41.67
36664;BME280;53333;51.976;20.144;2023-04-06T10:08:24;100591.88;;;7.42;42.07
36664;BME280;53333;51.976;20.144;2023-04-06T10:11:08;100582.31;;;7.35;42.01
36664;BME280;53333;51.976;20.144;2023-04-06T10:13:42;100585.09;;;7.31;42.51
36664;BME280;53333;51.976;20.144;2023-04-06T10:16:17;100582.59;;;7.26;42.41
36664;BME280;53333;51.976;20.144;2023-04-06T10:18:52;100581.97;;;7.16;42.97
36664;BME280;53333;51.976;20.144;2023-04-06T10:21:27;100578.41;;;7.17;42.93
36664;BME280;53333;51.976;20.144;2023-04-06T10:24:07;100571.28;;;7.18;43.08
36664;BME280;53333;51.976;20.144;2023-04-06T10:26:42;100571.25;;;7.19;43.06
36664;BME280;53333;51.976;20.144;2023-04-06T10:29:15;100571.09;;;7.25;43.06
36664;BME280;53333;51.976;20.144;2023-04-06T10:31:49;100570.94;;;7.30;43.17
36664;BME280;53333;51.976;20.144;2023-04-06T10:34:22;100569.03;;;7.35;43.17
36664;BME280;53333;51.976;20.144;2023-04-06T10:36:55;100565.38;;;7.39;43.11
36664;BME280;53333;51.976;20.144;2023-04-06T10:39:28;100559.25;;;7.37;43.45
36664;BME280;53333;51.976;20.144;2023-04-06T10:42:06;100565.63;;;7.30;43.97
36664;BME280;53333;51.976;20.144;2023-04-06T10:44:42;100556.47;;;7.11;44.33
36664;BME280;53333;51.976;20.144;2023-04-06T10:47:17;100557.00;;;6.90;45.06
36664;BME280;53333;51.976;20.144;2023-04-06T10:49:50;100556.50;;;6.76;45.30
36664;BME280;53333;51.976;20.144;2023-04-06T10:52:23;100562.91;;;6.69;45.53
36664;BME280;53333;51.976;20.144;2023-04-06T10:54:56;100550.31;;;6.76;45.85
36664;BME280;53333;51.976;20.144;2023-04-06T10:57:29;100556.19;;;6.88;45.93
36664;BME280;53333;51.976;20.144;2023-04-06T11:00:05;100549.59;;;7.02;46.11
36664;BME280;53333;51.976;20.144;2023-04-06T11:02:42;100550.38;;;7.07;46.06
36664;BME280;53333;51.976;20.144;2023-04-06T11:05:15;100550.25;;;7.12;46.16
36664;BME280;53333;51.976;20.144;2023-04-06T11:07:48;100548.63;;;7.06;46.00
36664;BME280;53333;51.976;20.144;2023-04-06T11:10:22;100547.31;;;6.89;46.44
36664;BME280;53333;51.976;20.144;2023-04-06T11:12:55;100546.69;;;6.80;47.01
36664;BME280;53333;51.976;20.144;2023-04-06T11:15:33;100538.97;;;6.70;47.08
36664;BME280;53333;51.976;20.144;2023-04-06T11:18:17;100542.88;;;6.55;47.62
36664;BME280;53333;51.976;20.144;2023-04-06T11:20:50;100529.03;;;6.44;47.71
36664;BME280;53333;51.976;20.144;2023-04-06T11:23:23;100531.91;;;6.35;48.16
36664;BME280;53333;51.976;20.144;2023-04-06T11:25:57;100522.56;;;6.20;48.50
36664;BME280;53333;51.976;20.144;2023-04-06T11:28:30;100524.72;;;6.04;48.99
36664;BME280;53333;51.976;20.144;2023-04-06T11:31:03;100521.34;;;5.97;49.50
36664;BME280;53333;51.976;20.144;2023-04-06T11:33:38;100514.28;;;5.96;49.86
36664;BME280;53333;51.976;20.144;2023-04-06T11:36:13;100517.63;;;6.05;50.32
36664;BME280;53333;51.976;20.144;2023-04-06T11:38:47;100516.50;;;6.15;50.31
36664;BME280;53333;51.976;20.144;2023-04-06T11:41:23;100523.31;;;6.25;50.43
36664;BME280;53333;51.976;20.144;2023-04-06T11:43:56;100522.25;;;6.32;50.43
36664;BME280;53333;51.976;20.144;2023-04-06T11:46:29;100520.31;;;6.39;50.56
36664;BME280;53333;51.976;20.144;2023-04-06T11:49:04;100516.59;;;6.46;50.49
36664;BME280;53333;51.976;20.144;2023-04-06T11:51:37;100512.81;;;6.55;50.59
36664;BME280;53333;51.976;20.144;2023-04-06T11:54:10;100514.47;;;6.61;50.56
36664;BME280;53333;51.976;20.144;2023-04-06T11:56:46;100506.44;;;6.62;50.61
36664;BME280;53333;51.976;20.144;2023-04-06T11:59:19;100508.41;;;6.54;50.87
36664;BME280;53333;51.976;20.144;2023-04-06T12:01:53;100506.03;;;6.45;51.13
36664;BME280;53333;51.976;20.144;2023-04-06T12:04:27;100500.88;;;6.39;51.55
36664;BME280;53333;51.976;20.144;2023-04-06T12:07:00;100507.34;;;6.27;52.28
36664;BME280;53333;51.976;20.144;2023-04-06T12:09:33;100506.81;;;6.12;52.48
36664;BME280;53333;51.976;20.144;2023-04-06T12:12:08;100505.41;;;5.99;53.11
36664;BME280;53333;51.976;20.144;2023-04-06T12:14:41;100500.28;;;5.90;53.60
36664;BME280;53333;51.976;20.144;2023-04-06T12:17:14;100500.41;;;5.83;54.25
36664;BME280;53333;51.976;20.144;2023-04-06T12:19:48;100498.72;;;5.81;54.65
36664;BME280;53333;51.976;20.144;2023-04-06T12:22:21;100495.25;;;5.77;54.81
36664;BME280;53333;51.976;20.144;2023-04-06T12:24:59;100494.41;;;5.77;55.02
36664;BME280;53333;51.976;20.144;2023-04-06T12:27:32;100488.22;;;5.76;55.27
36664;BME280;53333;51.976;20.144;2023-04-06T12:30:06;100489.09;;;5.77;55.57
36664;BME280;53333;51.976;20.144;2023-04-06T12:32:40;100496.25;;;5.73;55.56
36664;BME280;53333;51.976;20.144;2023-04-06T12:35:14;100497.25;;;5.68;55.90
36664;BME280;53333;51.976;20.144;2023-04-06T12:37:48;100496.44;;;5.66;56.18
36664;BME280;53333;51.976;20.144;2023-04-06T12:40:21;100500.09;;;5.60;56.15
36664;BME280;53333;51.976;20.144;2023-04-06T12:42:54;100495.78;;;5.56;56.53
36664;BME280;53333;51.976;20.144;2023-04-06T12:45:27;100491.31;;;5.58;56.65
36664;BME280;53333;51.976;20.144;2023-04-06T12:48:00;100492.28;;;5.54;56.80
36664;BME280;53333;51.976;20.144;2023-04-06T12:50:35;100489.75;;;5.49;57.04
36664;BME280;53333;51.976;20.144;2023-04-06T12:53:08;100488.91;;;5.45;57.34
36664;BME280;53333;51.976;20.144;2023-04-06T12:55:41;100486.31;;;5.44;57.22
36664;BME280;53333;51.976;20.144;2023-04-06T12:58:14;100479.41;;;5.37;57.50
36664;BME280;53333;51.976;20.144;2023-04-06T13:00:49;100473.31;;;5.33;57.88
36664;BME280;53333;51.976;20.144;2023-04-06T13:03:23;100463.69;;;5.29;57.79
36664;BME280;53333;51.976;20.144;2023-04-06T13:05:59;100463.78;;;5.24;58.06
36664;BME280;53333;51.976;20.144;2023-04-06T13:08:32;100460.38;;;5.19;58.06
36664;BME280;53333;51.976;20.144;2023-04-06T13:11:06;100455.28;;;5.10;58.31
36664;BME280;53333;51.976;20.144;2023-04-06T13:13:40;100459.75;;;5.06;58.49
36664;BME280;53333;51.976;20.144;2023-04-06T13:16:13;100445.75;;;5.01;58.68
36664;BME280;53333;51.976;20.144;2023-04-06T13:18:47;100453.66;;;5.03;58.77
36664;BME280;53333;51.976;20.144;2023-04-06T13:21:21;100436.06;;;5.00;59.01
36664;BME280;53333;51.976;20.144;2023-04-06T13:23:54;100440.41;;;5.04;59.24
36664;BME280;53333;51.976;20.144;2023-04-06T13:26:27;100442.97;;;5.07;59.16
36664;BME280;53333;51.976;20.144;2023-04-06T13:29:00;100442.06;;;5.08;59.33
36664;BME280;53333;51.976;20.144;2023-04-06T13:31:34;100439.41;;;5.08;59.46
36664;BME280;53333;51.976;20.144;2023-04-06T13:34:09;100433.19;;;5.11;59.52